createdAt,value
2023-10-14T00:01:33.214Z,14.10
2023-10-14T00:04:03.334Z,14.20
2023-10-14T00:06:31.446Z,14.30
2023-10-14T00:09:02.554Z,14.30
2023-10-14T00:11:35.142Z,14.50
2023-10-14T00:14:04.233Z,14.60
2023-10-14T00:16:36.580Z,14.70
2023-10-14T00:19:06.345Z,14.90
2023-10-14T00:21:35.875Z,15.00
2023-10-14T00:24:07.498Z,15.10
2023-10-14T00:26:36.260Z,15.10
2023-10-14T00:29:19.502Z,15.20
2023-10-14T00:31:49.252Z,15.20
2023-10-14T00:34:18.480Z,15.20
2023-10-14T00:36:46.516Z,15.20
2023-10-14T00:39:17.637Z,15.20
2023-10-14T00:41:47.880Z,15.10
2023-10-14T00:44:15.981Z,15.00
2023-10-14T00:46:49.528Z,15.00
2023-10-14T00:49:18.792Z,15.10
2023-10-14T00:51:50.766Z,15.10
2023-10-14T00:54:28.426Z,15.10
2023-10-14T00:57:06.280Z,15.00
2023-10-14T00:59:35.633Z,14.90
2023-10-14T01:02:03.702Z,14.80
2023-10-14T01:04:34.091Z,14.60
2023-10-14T01:07:05.587Z,14.30
2023-10-14T01:09:50.122Z,14.20
2023-10-14T01:12:22.031Z,14.20
2023-10-14T01:14:53.428Z,14.20
2023-10-14T01:17:27.774Z,13.80
2023-10-14T01:19:56.603Z,13.80
2023-10-14T01:22:28.031Z,13.80
2023-10-14T01:24:56.540Z,13.70
2023-10-14T01:27:26.285Z,13.60
2023-10-14T01:29:54.355Z,13.50
2023-10-14T01:32:39.183Z,13.40
2023-10-14T01:35:24.010Z,13.20
2023-10-14T01:37:54.290Z,13.10
2023-10-14T01:40:31.194Z,13.00
2023-10-14T01:43:07.111Z,13.10
2023-10-14T01:45:42.671Z,13.20
2023-10-14T01:48:14.438Z,13.20
2023-10-14T01:50:45.996Z,13.40
2023-10-14T01:53:22.283Z,13.70
2023-10-14T01:55:51.675Z,13.70
2023-10-14T01:58:30.607Z,13.70
2023-10-14T02:01:06.413Z,13.60
2023-10-14T02:03:41.851Z,13.70
2023-10-14T02:06:14.576Z,13.80
2023-10-14T02:08:44.599Z,13.90
2023-10-14T02:11:13.004Z,13.70
2023-10-14T02:13:41.620Z,13.80
2023-10-14T02:16:09.697Z,14.00
2023-10-14T02:18:38.958Z,13.90
2023-10-14T02:21:12.745Z,14.00
2023-10-14T02:23:49.177Z,13.90
2023-10-14T02:26:23.411Z,13.90
2023-10-14T02:28:55.929Z,13.90
2023-10-14T02:31:31.716Z,13.80
2023-10-14T02:34:05.593Z,13.70
2023-10-14T02:36:37.490Z,13.70
2023-10-14T02:39:13.446Z,13.60
2023-10-14T02:41:44.853Z,13.70
2023-10-14T02:44:29.155Z,13.70
2023-10-14T02:47:02.818Z,13.70
2023-10-14T02:49:36.791Z,13.70
2023-10-14T02:52:10.159Z,13.80
2023-10-14T02:54:41.361Z,13.90
2023-10-14T02:57:24.415Z,14.10
2023-10-14T02:59:57.364Z,14.20
2023-10-14T03:02:49.502Z,14.20
2023-10-14T03:05:34.392Z,14.40
2023-10-14T03:08:10.183Z,14.50
2023-10-14T03:10:44.266Z,14.40
2023-10-14T03:13:13.329Z,14.30
2023-10-14T03:15:43.704Z,14.30
2023-10-14T03:18:14.747Z,14.20
2023-10-14T03:20:46.744Z,14.20
2023-10-14T03:23:20.475Z,14.20
2023-10-14T03:25:51.421Z,14.20
2023-10-14T03:28:22.048Z,14.30
2023-10-14T03:30:56.470Z,14.20
2023-10-14T03:33:29.063Z,14.10
2023-10-14T03:36:01.399Z,14.00
2023-10-14T03:38:41.017Z,14.00
2023-10-14T03:41:19.800Z,14.10
2023-10-14T03:43:55.705Z,14.30
2023-10-14T03:46:33.468Z,14.60
2023-10-14T03:49:09.670Z,15.10
2023-10-14T03:51:40.511Z,15.50
2023-10-14T03:54:10.593Z,15.90
2023-10-14T03:56:45.444Z,16.20
2023-10-14T03:59:21.540Z,16.50
2023-10-14T04:01:55.751Z,16.90
2023-10-14T04:04:25.787Z,17.20
2023-10-14T04:07:14.772Z,17.50
2023-10-14T04:09:46.377Z,17.70
2023-10-14T04:12:30.913Z,18.00
2023-10-14T04:15:06.414Z,18.10
2023-10-14T04:17:35.666Z,18.30
2023-10-14T04:20:23.757Z,18.50
2023-10-14T04:22:54.337Z,18.60
2023-10-14T04:25:28.245Z,18.70
2023-10-14T04:28:19.092Z,18.70
2023-10-14T04:30:48.020Z,18.70
2023-10-14T04:33:20.712Z,18.80
2023-10-14T04:36:11.017Z,18.90
2023-10-14T04:38:43.617Z,19.00
2023-10-14T04:41:17.752Z,19.10
2023-10-14T04:44:02.252Z,19.10
2023-10-14T04:46:47.710Z,19.20
2023-10-14T04:49:18.507Z,19.20
2023-10-14T04:51:49.344Z,19.20
2023-10-14T04:54:22.056Z,19.20
2023-10-14T04:56:50.306Z,19.30
2023-10-14T04:59:26.251Z,19.30
2023-10-14T05:01:57.211Z,19.30
2023-10-14T05:04:31.972Z,19.30
2023-10-14T05:07:05.381Z,19.40
2023-10-14T05:09:40.274Z,19.40
2023-10-14T05:12:09.541Z,19.50
2023-10-14T05:14:38.962Z,19.50
2023-10-14T05:17:15.860Z,19.50
2023-10-14T05:19:44.790Z,19.50
2023-10-14T05:22:20.043Z,19.50
2023-10-14T05:24:51.002Z,19.50
2023-10-14T05:27:20.760Z,19.50
2023-10-14T05:29:52.772Z,19.50
2023-10-14T05:32:25.332Z,19.60
2023-10-14T05:34:54.973Z,19.60
2023-10-14T05:37:23.589Z,19.70
2023-10-14T05:39:55.945Z,19.70
2023-10-14T05:42:25.429Z,19.70
2023-10-14T05:44:59.077Z,19.70
2023-10-14T05:47:28.636Z,19.60
2023-10-14T05:49:57.137Z,19.60
2023-10-14T05:52:26.258Z,19.60
2023-10-14T05:54:54.900Z,19.70
2023-10-14T05:57:23.966Z,19.70
2023-10-14T05:59:52.033Z,19.70
2023-10-14T06:02:21.368Z,19.70
2023-10-14T06:04:51.513Z,19.70
2023-10-14T06:07:20.251Z,19.80
2023-10-14T06:09:48.560Z,19.70
2023-10-14T06:12:18.051Z,19.80
2023-10-14T06:14:48.419Z,19.80
2023-10-14T06:17:17.291Z,19.80
2023-10-14T06:19:46.660Z,19.70
2023-10-14T06:22:15.786Z,19.70
2023-10-14T06:24:44.629Z,19.70
2023-10-14T06:27:22.292Z,19.60
2023-10-14T06:29:51.983Z,19.60
2023-10-14T06:32:21.845Z,19.70
2023-10-14T06:35:00.069Z,19.80
2023-10-14T06:37:29.221Z,19.90
2023-10-14T06:39:58.875Z,20.00
2023-10-14T06:42:28.412Z,20.00
2023-10-14T06:44:58.750Z,20.10
2023-10-14T06:47:28.737Z,20.10
2023-10-14T06:49:58.428Z,20.00
2023-10-14T06:52:26.559Z,20.00
2023-10-14T06:54:54.832Z,19.90
2023-10-14T06:57:23.685Z,19.90
2023-10-14T06:59:52.807Z,20.00
2023-10-14T07:02:22.621Z,20.10
2023-10-14T07:04:51.641Z,20.20
2023-10-14T07:07:21.282Z,20.20
2023-10-14T07:09:49.709Z,20.40
2023-10-14T07:12:21.192Z,20.50
2023-10-14T07:14:49.578Z,20.70
2023-10-14T07:17:23.509Z,20.60
2023-10-14T07:19:51.862Z,20.40
2023-10-14T07:22:23.205Z,20.50
2023-10-14T07:24:52.133Z,20.40
2023-10-14T07:27:21.646Z,20.20
2023-10-14T07:29:49.874Z,20.20
2023-10-14T07:32:20.882Z,20.10
2023-10-14T07:34:51.741Z,20.10
2023-10-14T07:37:21.552Z,20.10
2023-10-14T07:39:53.820Z,20.20
2023-10-14T07:42:22.852Z,20.60
2023-10-14T07:44:53.169Z,20.50
2023-10-14T07:47:22.545Z,20.50
2023-10-14T07:49:51.867Z,20.20
2023-10-14T07:52:22.225Z,20.10
2023-10-14T07:54:52.678Z,20.00
2023-10-14T07:57:21.024Z,20.10
2023-10-14T07:59:52.312Z,20.10
2023-10-14T08:02:20.767Z,20.10
2023-10-14T08:04:48.839Z,20.30
2023-10-14T08:07:16.984Z,20.20
2023-10-14T08:09:47.787Z,20.10
2023-10-14T08:12:16.201Z,20.30
2023-10-14T08:14:45.764Z,20.50
2023-10-14T08:17:14.282Z,20.50
2023-10-14T08:19:43.697Z,20.50
2023-10-14T08:22:15.549Z,20.50
2023-10-14T08:24:43.975Z,20.50
2023-10-14T08:27:15.361Z,20.50
2023-10-14T08:29:43.943Z,20.20
2023-10-14T08:32:13.030Z,20.10
2023-10-14T08:34:41.235Z,19.90
2023-10-14T08:37:09.859Z,19.90
2023-10-14T08:39:38.684Z,19.80
2023-10-14T08:42:11.157Z,19.90
2023-10-14T08:44:44.944Z,19.90
2023-10-14T08:47:15.783Z,20.00
2023-10-14T08:49:44.987Z,20.10
2023-10-14T08:52:17.874Z,20.30
2023-10-14T08:54:47.575Z,20.50
2023-10-14T08:57:16.634Z,20.40
2023-10-14T08:59:47.809Z,20.30
2023-10-14T09:02:15.931Z,20.40
2023-10-14T09:04:43.999Z,20.30
2023-10-14T09:07:17.838Z,20.10
2023-10-14T09:09:45.921Z,20.10
2023-10-14T09:12:14.792Z,20.20
2023-10-14T09:14:43.885Z,20.10
2023-10-14T09:17:16.928Z,20.00
2023-10-14T09:19:46.158Z,20.20
2023-10-14T09:22:24.095Z,20.20
2023-10-14T09:24:53.082Z,20.10
2023-10-14T09:27:21.964Z,20.10
2023-10-14T09:29:50.244Z,20.20
2023-10-14T09:32:19.706Z,20.30
2023-10-14T09:34:47.811Z,20.40
2023-10-14T09:37:19.122Z,20.70
2023-10-14T09:39:51.277Z,21.00
2023-10-14T09:42:22.071Z,20.70
2023-10-14T09:44:51.016Z,20.40
2023-10-14T09:47:23.755Z,20.20
2023-10-14T09:49:53.878Z,20.30
2023-10-14T09:52:23.522Z,20.40
2023-10-14T09:54:54.996Z,20.30
2023-10-14T09:57:23.863Z,20.40
2023-10-14T09:59:54.325Z,20.20
2023-10-14T10:02:24.487Z,20.10
2023-10-14T10:04:55.198Z,20.00
2023-10-14T10:07:43.173Z,20.10
2023-10-14T10:10:18.902Z,20.10
2023-10-14T10:12:54.412Z,20.10
2023-10-14T10:15:22.820Z,20.20
2023-10-14T10:18:04.119Z,20.20
2023-10-14T10:20:36.935Z,20.00
2023-10-14T10:23:07.858Z,19.80
2023-10-14T10:25:53.048Z,19.90
2023-10-14T10:28:40.930Z,19.70
2023-10-14T10:31:11.958Z,19.70
2023-10-14T10:33:54.387Z,19.70
2023-10-14T10:36:25.605Z,19.80
2023-10-14T10:38:59.424Z,19.70
2023-10-14T10:41:29.203Z,19.70
2023-10-14T10:44:03.197Z,19.70
2023-10-14T10:46:40.200Z,19.80
2023-10-14T10:49:11.830Z,19.80
2023-10-14T10:51:51.897Z,19.80
2023-10-14T10:54:23.303Z,19.80
2023-10-14T10:57:06.947Z,20.10
2023-10-14T10:59:37.949Z,20.20
2023-10-14T11:02:09.070Z,20.40
2023-10-14T11:04:39.361Z,20.70
2023-10-14T11:07:08.077Z,20.90
2023-10-14T11:09:40.583Z,21.10
2023-10-14T11:12:10.964Z,21.40
2023-10-14T11:14:39.260Z,21.90
2023-10-14T11:17:08.191Z,22.20
2023-10-14T11:19:36.721Z,22.40
2023-10-14T11:22:07.495Z,22.60
2023-10-14T11:24:37.400Z,22.50
2023-10-14T11:27:08.448Z,22.90
2023-10-14T11:29:37.097Z,22.80
2023-10-14T11:32:06.585Z,22.50
2023-10-14T11:34:37.978Z,22.70
2023-10-14T11:37:12.241Z,22.60
2023-10-14T11:39:40.383Z,22.70
2023-10-14T11:42:08.919Z,23.10
2023-10-14T11:44:38.473Z,23.50
2023-10-14T11:47:08.360Z,23.50
2023-10-14T11:49:37.503Z,23.10
2023-10-14T11:52:07.435Z,22.90
2023-10-14T11:54:39.159Z,22.80
2023-10-14T11:57:08.948Z,22.40
2023-10-14T11:59:39.717Z,22.10
2023-10-14T12:02:07.758Z,22.20
2023-10-14T12:04:36.241Z,22.30
2023-10-14T12:07:05.725Z,22.40
2023-10-14T12:09:34.079Z,22.30
2023-10-14T12:12:04.349Z,22.50
2023-10-14T12:14:32.323Z,22.60
2023-10-14T12:17:05.848Z,22.60
2023-10-14T12:19:34.232Z,22.60
2023-10-14T12:22:02.434Z,22.60
2023-10-14T12:24:33.363Z,22.60
2023-10-14T12:27:03.481Z,22.70
2023-10-14T12:29:34.752Z,22.80
2023-10-14T12:32:17.957Z,22.60
2023-10-14T12:34:47.294Z,22.60
2023-10-14T12:37:19.964Z,22.80
2023-10-14T12:39:54.628Z,22.80
2023-10-14T12:42:39.270Z,22.50
2023-10-14T12:45:13.847Z,22.10
2023-10-14T12:47:47.205Z,21.90
2023-10-14T12:50:16.269Z,22.20
2023-10-14T12:52:46.814Z,22.10
2023-10-14T12:55:23.599Z,22.10
2023-10-14T12:57:53.658Z,22.00
2023-10-14T13:00:26.579Z,21.70
2023-10-14T13:02:54.963Z,21.50
2023-10-14T13:05:23.087Z,21.20
2023-10-14T13:07:53.404Z,21.20
2023-10-14T13:10:21.851Z,21.10
2023-10-14T13:12:51.786Z,21.10
2023-10-14T13:15:27.613Z,21.10
2023-10-14T13:17:59.865Z,21.30
2023-10-14T13:20:29.078Z,21.40
2023-10-14T13:22:59.429Z,21.50
2023-10-14T13:25:27.890Z,21.40
2023-10-14T13:27:56.007Z,21.20
2023-10-14T13:30:25.730Z,21.00
2023-10-14T13:32:57.644Z,20.80
2023-10-14T13:35:26.264Z,20.60
2023-10-14T13:37:56.037Z,20.50
2023-10-14T13:40:39.747Z,20.60
2023-10-14T13:43:10.140Z,20.70
2023-10-14T13:45:42.756Z,20.80
2023-10-14T13:48:11.422Z,20.70
2023-10-14T13:50:39.736Z,20.60
2023-10-14T13:53:18.273Z,20.50
2023-10-14T13:55:46.996Z,20.50
2023-10-14T13:58:15.834Z,20.30
2023-10-14T14:00:51.102Z,20.10
2023-10-14T14:03:22.688Z,19.90
2023-10-14T14:05:52.612Z,19.80
2023-10-14T14:08:25.714Z,19.80
2023-10-14T14:11:00.045Z,19.50
2023-10-14T14:13:29.226Z,19.00
2023-10-14T14:16:01.176Z,18.70
2023-10-14T14:18:30.265Z,18.40
2023-10-14T14:20:58.278Z,18.20
2023-10-14T14:23:28.252Z,18.30
2023-10-14T14:25:56.314Z,18.50
2023-10-14T14:28:24.424Z,18.60
2023-10-14T14:30:52.520Z,18.60
2023-10-14T14:33:21.889Z,18.60
2023-10-14T14:35:49.868Z,18.50
2023-10-14T14:38:22.127Z,18.30
2023-10-14T14:40:50.303Z,18.40
2023-10-14T14:43:18.908Z,18.50
2023-10-14T14:45:47.165Z,18.50
2023-10-14T14:48:15.110Z,18.30
2023-10-14T14:50:46.132Z,18.20
2023-10-14T14:53:15.423Z,18.20
2023-10-14T14:55:44.172Z,18.10
2023-10-14T14:58:15.838Z,18.00
2023-10-14T15:00:43.943Z,17.70
2023-10-14T15:03:12.578Z,17.50
2023-10-14T15:05:43.315Z,17.30
2023-10-14T15:08:14.167Z,17.20
2023-10-14T15:10:46.235Z,17.10
2023-10-14T15:13:16.148Z,17.00
2023-10-14T15:15:44.872Z,16.70
2023-10-14T15:18:14.180Z,16.40
2023-10-14T15:20:42.335Z,15.70
2023-10-14T15:23:11.232Z,15.40
2023-10-14T15:25:40.631Z,15.30
2023-10-14T15:28:10.050Z,15.30
2023-10-14T15:30:39.499Z,15.20
2023-10-14T15:33:07.971Z,15.20
2023-10-14T15:35:37.594Z,15.10
2023-10-14T15:38:09.611Z,15.10
2023-10-14T15:40:39.055Z,14.90
2023-10-14T15:43:08.451Z,14.80
2023-10-14T15:45:37.847Z,14.70
2023-10-14T15:48:10.271Z,14.80
2023-10-14T15:50:41.740Z,14.80
2023-10-14T15:53:10.677Z,14.70
2023-10-14T15:55:39.613Z,14.50
2023-10-14T15:58:09.086Z,14.50
2023-10-14T16:00:37.536Z,14.60
2023-10-14T16:03:08.953Z,14.50
2023-10-14T16:05:39.344Z,14.50
2023-10-14T16:08:08.857Z,14.40
2023-10-14T16:10:38.583Z,14.30
2023-10-14T16:13:09.245Z,14.20
2023-10-14T16:15:38.069Z,14.20
2023-10-14T16:18:09.278Z,14.20
2023-10-14T16:20:38.385Z,14.20
2023-10-14T16:23:08.014Z,14.10
2023-10-14T16:25:36.927Z,14.10
2023-10-14T16:28:05.693Z,14.10
2023-10-14T16:30:38.611Z,14.10
2023-10-14T16:33:07.248Z,14.10
2023-10-14T16:35:36.296Z,14.00
2023-10-14T16:38:08.288Z,13.90
2023-10-14T16:40:37.415Z,14.00
2023-10-14T16:43:06.961Z,13.90
2023-10-14T16:45:38.034Z,13.90
2023-10-14T16:48:09.278Z,13.90
2023-10-14T16:50:39.204Z,13.90
2023-10-14T16:53:08.482Z,13.90
2023-10-14T16:55:37.489Z,13.90
2023-10-14T16:58:06.914Z,13.90
2023-10-14T17:00:38.770Z,13.80
2023-10-14T17:03:08.120Z,13.80
2023-10-14T17:05:36.565Z,13.80
2023-10-14T17:08:08.074Z,13.70
2023-10-14T17:10:39.294Z,13.80
2023-10-14T17:13:09.825Z,13.70
2023-10-14T17:15:42.843Z,13.70
2023-10-14T17:18:12.306Z,13.70
2023-10-14T17:20:42.550Z,13.60
2023-10-14T17:23:13.825Z,13.60
2023-10-14T17:25:41.859Z,13.60
2023-10-14T17:28:13.208Z,13.70
2023-10-14T17:30:43.464Z,13.70
2023-10-14T17:33:13.533Z,13.70
2023-10-14T17:35:44.218Z,13.70
2023-10-14T17:38:12.384Z,13.80
2023-10-14T17:40:41.821Z,13.70
2023-10-14T17:43:11.711Z,13.60
2023-10-14T17:45:42.920Z,13.60
2023-10-14T17:48:12.616Z,13.60
2023-10-14T17:50:43.160Z,13.60
2023-10-14T17:53:14.340Z,13.70
2023-10-14T17:55:45.843Z,13.60
2023-10-14T17:58:15.190Z,13.70
2023-10-14T18:00:44.889Z,13.80
2023-10-14T18:03:13.786Z,13.70
2023-10-14T18:05:44.517Z,13.70
2023-10-14T18:08:13.090Z,13.60
2023-10-14T18:10:41.860Z,13.40
2023-10-14T18:13:10.168Z,13.20
2023-10-14T18:15:41.464Z,13.00
2023-10-14T18:18:12.679Z,12.80
2023-10-14T18:20:40.798Z,12.60
2023-10-14T18:23:09.962Z,12.50
2023-10-14T18:25:41.970Z,12.30
2023-10-14T18:28:10.857Z,12.20
2023-10-14T18:30:41.207Z,12.10
2023-10-14T18:33:12.421Z,11.90
2023-10-14T18:35:41.405Z,11.90
2023-10-14T18:38:11.748Z,11.90
2023-10-14T18:40:41.663Z,11.90
2023-10-14T18:43:10.403Z,11.90
2023-10-14T18:45:38.706Z,11.80
2023-10-14T18:48:09.439Z,11.80
2023-10-14T18:50:42.322Z,11.70
2023-10-14T18:53:11.948Z,11.60
2023-10-14T18:55:41.319Z,11.60
2023-10-14T18:58:12.433Z,11.50
2023-10-14T19:00:43.964Z,11.50
2023-10-14T19:03:12.847Z,11.50
2023-10-14T19:05:42.618Z,11.40
2023-10-14T19:08:12.620Z,11.50
2023-10-14T19:10:42.489Z,11.40
2023-10-14T19:13:12.448Z,11.40
2023-10-14T19:15:42.105Z,11.40
2023-10-14T19:18:10.799Z,11.40
2023-10-14T19:20:40.393Z,11.40
2023-10-14T19:23:15.283Z,11.30
2023-10-14T19:25:46.825Z,11.20
2023-10-14T19:28:15.379Z,11.10
2023-10-14T19:30:46.349Z,11.10
2023-10-14T19:33:17.120Z,11.00
2023-10-14T19:35:46.596Z,11.00
2023-10-14T19:38:16.423Z,11.00
2023-10-14T19:40:44.468Z,11.00
2023-10-14T19:43:13.253Z,10.90
2023-10-14T19:45:46.018Z,10.80
2023-10-14T19:48:14.284Z,10.80
2023-10-14T19:50:46.127Z,10.80
2023-10-14T19:53:16.666Z,10.70
2023-10-14T19:55:45.889Z,10.70
2023-10-14T19:58:14.874Z,10.70
2023-10-14T20:00:43.781Z,10.60
2023-10-14T20:03:13.528Z,10.70
2023-10-14T20:05:47.108Z,10.70
2023-10-14T20:08:20.803Z,10.60
2023-10-14T20:10:48.811Z,10.60
2023-10-14T20:13:18.078Z,10.60
2023-10-14T20:15:47.883Z,10.50
2023-10-14T20:18:17.851Z,10.50
2023-10-14T20:20:47.997Z,10.50
2023-10-14T20:23:18.365Z,10.50
2023-10-14T20:25:48.219Z,10.40
2023-10-14T20:28:19.081Z,10.40
2023-10-14T20:30:50.370Z,10.40
2023-10-14T20:33:19.715Z,10.30
2023-10-14T20:35:48.194Z,10.30
2023-10-14T20:38:18.103Z,10.30
2023-10-14T20:40:46.169Z,10.30
2023-10-14T20:43:14.932Z,10.30
2023-10-14T20:45:45.933Z,10.30
2023-10-14T20:48:15.184Z,10.40
2023-10-14T20:50:49.066Z,10.40
2023-10-14T20:53:20.155Z,10.40
2023-10-14T20:55:48.356Z,10.30
2023-10-14T20:58:16.582Z,10.30
2023-10-14T21:00:45.199Z,10.30
2023-10-14T21:03:21.601Z,10.30
2023-10-14T21:05:53.617Z,10.30
2023-10-14T21:08:25.616Z,10.30
2023-10-14T21:10:56.738Z,10.20
2023-10-14T21:13:27.849Z,10.20
2023-10-14T21:16:00.823Z,10.20
2023-10-14T21:18:29.351Z,10.20
2023-10-14T21:20:57.589Z,10.20
2023-10-14T21:23:27.221Z,10.10
2023-10-14T21:25:57.196Z,10.10
2023-10-14T21:28:25.622Z,10.20
2023-10-14T21:30:53.962Z,10.20
2023-10-14T21:33:22.546Z,10.20
2023-10-14T21:35:51.505Z,10.10
2023-10-14T21:38:19.580Z,10.10
2023-10-14T21:40:49.813Z,10.10
2023-10-14T21:43:19.036Z,10.10
2023-10-14T21:45:47.389Z,10.10
2023-10-14T21:48:15.786Z,10.20
2023-10-14T21:50:44.297Z,10.20
2023-10-14T21:53:13.487Z,10.10
2023-10-14T21:55:42.647Z,10.10
2023-10-14T21:58:15.131Z,10.10
2023-10-14T22:00:50.329Z,10.10
2023-10-14T22:03:21.357Z,10.10
2023-10-14T22:05:54.439Z,10.10
2023-10-14T22:08:22.586Z,10.10
2023-10-14T22:10:53.143Z,10.10
2023-10-14T22:13:23.605Z,10.10
2023-10-14T22:15:53.764Z,10.10
2023-10-14T22:18:22.362Z,10.10
2023-10-14T22:20:51.482Z,10.00
2023-10-14T22:23:21.715Z,10.10
2023-10-14T22:25:49.881Z,10.00
2023-10-14T22:28:17.959Z,10.00
2023-10-14T22:30:47.406Z,10.00
2023-10-14T22:33:15.550Z,10.10
2023-10-14T22:35:45.204Z,10.10
2023-10-14T22:38:13.477Z,10.10
2023-10-14T22:40:44.619Z,10.10
2023-10-14T22:43:13.171Z,10.10
2023-10-14T22:45:41.298Z,10.00
2023-10-14T22:48:12.202Z,10.00
2023-10-14T22:50:40.196Z,10.10
2023-10-14T22:53:11.296Z,10.00
2023-10-14T22:55:39.944Z,10.00
2023-10-14T22:58:07.911Z,10.00
2023-10-14T23:00:36.954Z,10.00
2023-10-14T23:03:11.055Z,10.10
2023-10-14T23:05:43.272Z,10.00
2023-10-14T23:08:15.534Z,10.10
2023-10-14T23:10:45.113Z,10.10
2023-10-14T23:13:14.895Z,10.10
2023-10-14T23:15:45.162Z,10.00
2023-10-14T23:18:13.163Z,10.00
2023-10-14T23:20:42.576Z,10.10
2023-10-14T23:23:10.537Z,10.00
2023-10-14T23:25:38.566Z,10.00
2023-10-14T23:28:08.112Z,10.10
2023-10-14T23:30:36.424Z,10.10
2023-10-14T23:33:05.452Z,10.10
2023-10-14T23:35:35.355Z,10.10
2023-10-14T23:38:07.283Z,10.10
2023-10-14T23:40:35.852Z,10.00
2023-10-14T23:43:09.696Z,10.00
2023-10-14T23:45:37.938Z,10.00
2023-10-14T23:48:06.771Z,10.00
2023-10-14T23:50:37.211Z,10.10
2023-10-14T23:53:07.756Z,10.10
2023-10-14T23:55:35.950Z,10.10
2023-10-14T23:58:04.735Z,10.10
